sensor_id;sensor_type;location;lat;lon;timestamp;pressure;altitude;pressure_sealevel;temperature;humidity
56400;BME280;42298;53.638;9.876;2023-04-26T00:02:23;101227.44;;;7.73;65.12
56400;BME280;42298;53.638;9.876;2023-04-26T00:04:52;101226.66;;;7.67;65.40
56400;BME280;42298;53.638;9.876;2023-04-26T00:07:23;101236.78;;;7.67;65.39
56400;BME280;42298;53.638;9.876;2023-04-26T00:09:49;101218.72;;;7.56;65.73
56400;BME280;42298;53.638;9.876;2023-04-26T00:12:16;101230.22;;;7.63;66.12
56400;BME280;42298;53.638;9.876;2023-04-26T00:14:41;101244.41;;;7.80;66.52
56400;BME280;42298;53.638;9.876;2023-04-26T00:17:07;101209.66;;;7.60;66.17
56400;BME280;42298;53.638;9.876;2023-04-26T00:19:33;101214.84;;;7.67;65.97
56400;BME280;42298;53.638;9.876;2023-04-26T00:21:58;101204.72;;;7.57;65.86
56400;BME280;42298;53.638;9.876;2023-04-26T00:24:24;101237.91;;;7.66;66.41
56400;BME280;42298;53.638;9.876;2023-04-26T00:26:52;101234.31;;;7.70;66.67
56400;BME280;42298;53.638;9.876;2023-04-26T00:29:18;101240.09;;;7.69;66.89
56400;BME280;42298;53.638;9.876;2023-04-26T00:31:43;101235.16;;;7.66;66.59
56400;BME280;42298;53.638;9.876;2023-04-26T00:34:08;101229.13;;;7.59;66.74
56400;BME280;42298;53.638;9.876;2023-04-26T00:36:34;101235.97;;;7.66;66.56
56400;BME280;42298;53.638;9.876;2023-04-26T00:38:59;101239.53;;;7.67;66.62
56400;BME280;42298;53.638;9.876;2023-04-26T00:41:25;101237.63;;;7.67;66.54
56400;BME280;42298;53.638;9.876;2023-04-26T00:43:50;101220.34;;;7.62;65.89
56400;BME280;42298;53.638;9.876;2023-04-26T00:46:16;101240.31;;;7.72;65.83
56400;BME280;42298;53.638;9.876;2023-04-26T00:48:41;101230.47;;;7.66;66.28
56400;BME280;42298;53.638;9.876;2023-04-26T00:51:08;101224.44;;;7.69;66.40
56400;BME280;42298;53.638;9.876;2023-04-26T00:53:33;101210.50;;;7.56;66.10
56400;BME280;42298;53.638;9.876;2023-04-26T00:55:59;101234.56;;;7.74;66.53
56400;BME280;42298;53.638;9.876;2023-04-26T00:58:25;101209.41;;;7.57;66.29
56400;BME280;42298;53.638;9.876;2023-04-26T01:00:51;101220.94;;;7.54;66.75
56400;BME280;42298;53.638;9.876;2023-04-26T01:03:16;101232.97;;;7.58;66.60
56400;BME280;42298;53.638;9.876;2023-04-26T01:05:42;101208.91;;;7.40;66.78
56400;BME280;42298;53.638;9.876;2023-04-26T01:08:08;101233.56;;;7.45;66.84
56400;BME280;42298;53.638;9.876;2023-04-26T01:10:34;101225.88;;;7.37;66.98
56400;BME280;42298;53.638;9.876;2023-04-26T01:13:00;101230.00;;;7.34;66.53
56400;BME280;42298;53.638;9.876;2023-04-26T01:15:27;101207.88;;;7.11;66.69
56400;BME280;42298;53.638;9.876;2023-04-26T01:17:55;101222.66;;;7.15;67.26
56400;BME280;42298;53.638;9.876;2023-04-26T01:20:20;101243.44;;;7.26;67.24
56400;BME280;42298;53.638;9.876;2023-04-26T01:22:46;101229.22;;;7.14;67.32
56400;BME280;42298;53.638;9.876;2023-04-26T01:25:11;101240.19;;;7.14;67.71
56400;BME280;42298;53.638;9.876;2023-04-26T01:27:37;101244.56;;;7.15;67.69
56400;BME280;42298;53.638;9.876;2023-04-26T01:30:03;101239.91;;;7.10;67.53
56400;BME280;42298;53.638;9.876;2023-04-26T01:32:28;101229.50;;;6.92;67.88
56400;BME280;42298;53.638;9.876;2023-04-26T01:34:58;101244.28;;;7.01;67.92
56400;BME280;42298;53.638;9.876;2023-04-26T01:37:23;101243.19;;;6.97;68.37
56400;BME280;42298;53.638;9.876;2023-04-26T01:39:49;101248.09;;;7.05;68.35
56400;BME280;42298;53.638;9.876;2023-04-26T01:42:14;101252.22;;;7.08;67.62
56400;BME280;42298;53.638;9.876;2023-04-26T01:44:39;101250.28;;;7.08;67.88
56400;BME280;42298;53.638;9.876;2023-04-26T01:47:05;101232.53;;;6.96;67.54
56400;BME280;42298;53.638;9.876;2023-04-26T01:49:30;101255.50;;;7.10;67.83
56400;BME280;42298;53.638;9.876;2023-04-26T01:51:57;101235.50;;;6.99;68.11
56400;BME280;42298;53.638;9.876;2023-04-26T01:54:22;101248.94;;;7.11;68.27
56400;BME280;42298;53.638;9.876;2023-04-26T01:56:48;101210.63;;;6.96;67.47
56400;BME280;42298;53.638;9.876;2023-04-26T01:59:13;101255.22;;;7.26;67.87
56400;BME280;42298;53.638;9.876;2023-04-26T02:01:40;101245.09;;;7.27;67.32
56400;BME280;42298;53.638;9.876;2023-04-26T02:04:05;101269.16;;;7.35;67.84
56400;BME280;42298;53.638;9.876;2023-04-26T02:06:31;101279.03;;;7.41;67.70
56400;BME280;42298;53.638;9.876;2023-04-26T02:08:56;101269.19;;;7.30;68.34
56400;BME280;42298;53.638;9.876;2023-04-26T02:11:22;101279.03;;;7.41;68.24
56400;BME280;42298;53.638;9.876;2023-04-26T02:13:47;101299.88;;;7.42;68.85
56400;BME280;42298;53.638;9.876;2023-04-26T02:16:12;101277.13;;;7.31;68.96
56400;BME280;42298;53.638;9.876;2023-04-26T02:18:40;101249.72;;;7.21;69.22
56400;BME280;42298;53.638;9.876;2023-04-26T02:21:10;101277.13;;;7.46;69.24
56400;BME280;42298;53.638;9.876;2023-04-26T02:23:35;101273.81;;;7.39;69.43
56400;BME280;42298;53.638;9.876;2023-04-26T02:26:01;101234.13;;;7.22;69.07
56400;BME280;42298;53.638;9.876;2023-04-26T02:28:27;101267.53;;;7.39;69.45
56400;BME280;42298;53.638;9.876;2023-04-26T02:30:52;101261.50;;;7.32;69.04
56400;BME280;42298;53.638;9.876;2023-04-26T02:33:18;101257.94;;;7.21;68.34
56400;BME280;42298;53.638;9.876;2023-04-26T02:35:43;101266.47;;;7.15;69.21
56400;BME280;42298;53.638;9.876;2023-04-26T02:38:08;101231.94;;;6.89;68.64
56400;BME280;42298;53.638;9.876;2023-04-26T02:40:34;101258.81;;;7.02;69.28
56400;BME280;42298;53.638;9.876;2023-04-26T02:42:59;101246.75;;;6.98;68.82
56400;BME280;42298;53.638;9.876;2023-04-26T02:45:25;101239.38;;;6.88;68.67
56400;BME280;42298;53.638;9.876;2023-04-26T02:47:51;101248.38;;;6.94;68.79
56400;BME280;42298;53.638;9.876;2023-04-26T02:50:18;101252.22;;;6.88;68.91
56400;BME280;42298;53.638;9.876;2023-04-26T02:52:43;101229.22;;;6.69;69.31
56400;BME280;42298;53.638;9.876;2023-04-26T02:55:08;101260.44;;;6.78;68.68
56400;BME280;42298;53.638;9.876;2023-04-26T02:57:34;101263.16;;;6.73;69.83
56400;BME280;42298;53.638;9.876;2023-04-26T02:59:59;101252.75;;;6.60;70.02
56400;BME280;42298;53.638;9.876;2023-04-26T03:02:25;101243.44;;;6.61;69.53
56400;BME280;42298;53.638;9.876;2023-04-26T03:04:50;101267.53;;;6.69;69.74
56400;BME280;42298;53.638;9.876;2023-04-26T03:07:16;101264.50;;;6.60;70.59
56400;BME280;42298;53.638;9.876;2023-04-26T03:09:41;101262.03;;;6.59;70.98
56400;BME280;42298;53.638;9.876;2023-04-26T03:12:07;101263.97;;;6.68;70.83
56400;BME280;42298;53.638;9.876;2023-04-26T03:14:33;101259.59;;;6.67;70.81
56400;BME280;42298;53.638;9.876;2023-04-26T03:16:59;101258.75;;;6.77;70.90
56400;BME280;42298;53.638;9.876;2023-04-26T03:19:25;101266.44;;;6.85;70.68
56400;BME280;42298;53.638;9.876;2023-04-26T03:21:51;101264.81;;;6.84;69.55
56400;BME280;42298;53.638;9.876;2023-04-26T03:24:16;101268.91;;;6.86;70.00
56400;BME280;42298;53.638;9.876;2023-04-26T03:26:42;101266.44;;;6.85;69.93
56400;BME280;42298;53.638;9.876;2023-04-26T03:29:07;101261.53;;;6.82;70.07
56400;BME280;42298;53.638;9.876;2023-04-26T03:31:33;101257.69;;;6.83;70.04
56400;BME280;42298;53.638;9.876;2023-04-26T03:33:58;101260.41;;;6.83;70.09
56400;BME280;42298;53.638;9.876;2023-04-26T03:36:23;101249.22;;;6.79;70.29
56400;BME280;42298;53.638;9.876;2023-04-26T03:38:49;101260.97;;;6.95;69.93
56400;BME280;42298;53.638;9.876;2023-04-26T03:41:14;101264.28;;;6.97;69.82
56400;BME280;42298;53.638;9.876;2023-04-26T03:43:39;101256.06;;;6.97;69.57
56400;BME280;42298;53.638;9.876;2023-04-26T03:46:04;101241.81;;;6.80;69.39
56400;BME280;42298;53.638;9.876;2023-04-26T03:48:30;101267.28;;;6.90;69.57
56400;BME280;42298;53.638;9.876;2023-04-26T03:50:55;101233.59;;;6.70;69.28
56400;BME280;42298;53.638;9.876;2023-04-26T03:53:21;101249.19;;;6.74;69.36
56400;BME280;42298;53.638;9.876;2023-04-26T03:55:46;101254.13;;;6.77;69.63
56400;BME280;42298;53.638;9.876;2023-04-26T03:58:12;101253.84;;;6.74;69.48
56400;BME280;42298;53.638;9.876;2023-04-26T04:00:38;101261.78;;;6.75;69.30
56400;BME280;42298;53.638;9.876;2023-04-26T04:03:05;101267.00;;;6.72;69.38
56400;BME280;42298;53.638;9.876;2023-04-26T04:05:31;101257.94;;;6.71;69.36
56400;BME280;42298;53.638;9.876;2023-04-26T04:07:57;101257.94;;;6.71;69.77
56400;BME280;42298;53.638;9.876;2023-04-26T04:10:22;101245.34;;;6.65;69.63
56400;BME280;42298;53.638;9.876;2023-04-26T04:12:48;101264.25;;;6.77;69.70
56400;BME280;42298;53.638;9.876;2023-04-26T04:15:15;101254.13;;;6.67;69.86
56400;BME280;42298;53.638;9.876;2023-04-26T04:17:41;101264.81;;;6.84;70.07
56400;BME280;42298;53.638;9.876;2023-04-26T04:20:06;101258.50;;;6.78;69.54
56400;BME280;42298;53.638;9.876;2023-04-26T04:22:32;101248.09;;;6.75;69.48
56400;BME280;42298;53.638;9.876;2023-04-26T04:24:57;101275.75;;;6.89;69.49
56400;BME280;42298;53.638;9.876;2023-04-26T04:27:24;101278.22;;;6.85;70.23
56400;BME280;42298;53.638;9.876;2023-04-26T04:29:50;101282.91;;;7.00;69.92
56400;BME280;42298;53.638;9.876;2023-04-26T04:32:15;101261.78;;;6.90;69.70
56400;BME280;42298;53.638;9.876;2023-04-26T04:34:41;101281.00;;;7.00;69.63
56400;BME280;42298;53.638;9.876;2023-04-26T04:37:07;101264.81;;;6.89;69.76
56400;BME280;42298;53.638;9.876;2023-04-26T04:39:33;101298.53;;;7.09;69.73
56400;BME280;42298;53.638;9.876;2023-04-26T04:41:58;101290.03;;;7.11;69.52
56400;BME280;42298;53.638;9.876;2023-04-26T04:44:24;101302.34;;;7.23;69.86
56400;BME280;42298;53.638;9.876;2023-04-26T04:46:51;101297.41;;;7.25;69.52
56400;BME280;42298;53.638;9.876;2023-04-26T04:49:16;101306.72;;;7.34;69.60
56400;BME280;42298;53.638;9.876;2023-04-26T04:51:44;101269.19;;;7.20;69.21
56400;BME280;42298;53.638;9.876;2023-04-26T04:56:36;101302.34;;;7.43;69.40
56400;BME280;42298;53.638;9.876;2023-04-26T04:59:01;101290.56;;;7.48;69.72
56400;BME280;42298;53.638;9.876;2023-04-26T05:01:26;101299.88;;;7.57;69.09
56400;BME280;42298;53.638;9.876;2023-04-26T05:03:51;101260.13;;;7.44;69.17
56400;BME280;42298;53.638;9.876;2023-04-26T05:06:17;101264.78;;;7.49;69.12
56400;BME280;42298;53.638;9.876;2023-04-26T05:08:42;101261.22;;;7.58;68.80
56400;BME280;42298;53.638;9.876;2023-04-26T05:11:07;101256.84;;;7.52;68.67
56400;BME280;42298;53.638;9.876;2023-04-26T05:13:33;101292.69;;;7.76;68.94
56400;BME280;42298;53.638;9.876;2023-04-26T05:15:58;101277.91;;;7.72;68.79
56400;BME280;42298;53.638;9.876;2023-04-26T05:18:24;101281.72;;;7.76;68.68
56400;BME280;42298;53.638;9.876;2023-04-26T05:20:50;101297.06;;;7.82;68.50
56400;BME280;42298;53.638;9.876;2023-04-26T05:23:15;101292.38;;;7.88;68.26
56400;BME280;42298;53.638;9.876;2023-04-26T05:25:41;101298.88;;;8.17;68.54
56400;BME280;42298;53.638;9.876;2023-04-26T05:28:06;101281.84;;;8.78;67.60
56400;BME280;42298;53.638;9.876;2023-04-26T05:30:36;101296.03;;;9.57;65.06
56400;BME280;42298;53.638;9.876;2023-04-26T05:33:02;101300.50;;;10.29;64.26
56400;BME280;42298;53.638;9.876;2023-04-26T05:35:27;101288.41;;;10.86;62.31
56400;BME280;42298;53.638;9.876;2023-04-26T05:37:53;101319.72;;;11.64;61.45
56400;BME280;42298;53.638;9.876;2023-04-26T05:40:18;101312.91;;;11.56;59.89
56400;BME280;42298;53.638;9.876;2023-04-26T05:42:43;101313.78;;;11.20;60.01
56400;BME280;42298;53.638;9.876;2023-04-26T05:45:09;101297.84;;;11.17;59.16
56400;BME280;42298;53.638;9.876;2023-04-26T05:47:34;101292.13;;;10.95;59.38
56400;BME280;42298;53.638;9.876;2023-04-26T05:50:02;101311.44;;;10.95;60.21
56400;BME280;42298;53.638;9.876;2023-04-26T05:52:27;101317.00;;;11.27;59.95
56400;BME280;42298;53.638;9.876;2023-04-26T05:54:52;101320.81;;;11.63;60.20
56400;BME280;42298;53.638;9.876;2023-04-26T05:57:18;101293.06;;;11.73;57.65
56400;BME280;42298;53.638;9.876;2023-04-26T05:59:43;101320.03;;;11.76;58.56
56400;BME280;42298;53.638;9.876;2023-04-26T06:02:08;101322.41;;;11.96;57.76
56400;BME280;42298;53.638;9.876;2023-04-26T06:04:34;101320.59;;;12.32;57.48
56400;BME280;42298;53.638;9.876;2023-04-26T06:06:59;101309.09;;;12.79;57.20
56400;BME280;42298;53.638;9.876;2023-04-26T06:09:25;101317.59;;;13.18;55.84
56400;BME280;42298;53.638;9.876;2023-04-26T06:11:51;101318.97;;;13.52;54.44
56400;BME280;42298;53.638;9.876;2023-04-26T06:14:16;101311.19;;;13.31;53.34
56400;BME280;42298;53.638;9.876;2023-04-26T06:16:41;101306.41;;;13.23;53.92
56400;BME280;42298;53.638;9.876;2023-04-26T06:19:07;101310.66;;;13.52;53.76
56400;BME280;42298;53.638;9.876;2023-04-26T06:21:32;101309.78;;;13.95;54.01
56400;BME280;42298;53.638;9.876;2023-04-26T06:23:57;101291.00;;;14.23;51.81
56400;BME280;42298;53.638;9.876;2023-04-26T06:26:23;101284.28;;;14.07;52.23
56400;BME280;42298;53.638;9.876;2023-04-26T06:28:48;101309.81;;;14.26;51.81
56400;BME280;42298;53.638;9.876;2023-04-26T06:31:16;101273.34;;;14.10;51.31
56400;BME280;42298;53.638;9.876;2023-04-26T06:33:43;101305.81;;;14.57;51.42
56400;BME280;42298;53.638;9.876;2023-04-26T06:36:15;101284.47;;;14.75;50.53
56400;BME280;42298;53.638;9.876;2023-04-26T06:38:40;101277.63;;;14.72;49.90
56400;BME280;42298;53.638;9.876;2023-04-26T06:41:05;101284.03;;;15.07;49.82
56400;BME280;42298;53.638;9.876;2023-04-26T06:43:31;101288.09;;;15.26;48.68
56400;BME280;42298;53.638;9.876;2023-04-26T06:46:00;101285.31;;;15.09;49.39
56400;BME280;42298;53.638;9.876;2023-04-26T06:48:25;101312.72;;;15.37;48.57
56400;BME280;42298;53.638;9.876;2023-04-26T06:50:51;101293.66;;;15.26;48.93
56400;BME280;42298;53.638;9.876;2023-04-26T06:53:16;101312.22;;;15.69;49.20
56400;BME280;42298;53.638;9.876;2023-04-26T06:55:43;101293.56;;;15.86;48.20
56400;BME280;42298;53.638;9.876;2023-04-26T06:58:08;101326.25;;;16.27;48.02
56400;BME280;42298;53.638;9.876;2023-04-26T07:00:34;101314.03;;;16.19;46.74
56400;BME280;42298;53.638;9.876;2023-04-26T07:02:59;101280.00;;;15.76;47.94
56400;BME280;42298;53.638;9.876;2023-04-26T07:05:25;101309.22;;;15.82;47.55
56400;BME280;42298;53.638;9.876;2023-04-26T07:07:50;101282.81;;;15.68;47.35
56400;BME280;42298;53.638;9.876;2023-04-26T07:10:16;101298.47;;;15.81;47.22
56400;BME280;42298;53.638;9.876;2023-04-26T07:12:41;101296.53;;;16.19;47.44
56400;BME280;42298;53.638;9.876;2023-04-26T07:15:10;101318.53;;;16.32;46.75
56400;BME280;42298;53.638;9.876;2023-04-26T07:17:35;101305.97;;;16.26;46.18
56400;BME280;42298;53.638;9.876;2023-04-26T07:20:01;101291.38;;;16.00;45.81
56400;BME280;42298;53.638;9.876;2023-04-26T07:22:26;101304.16;;;16.30;45.06
56400;BME280;42298;53.638;9.876;2023-04-26T07:24:52;101308.34;;;16.53;45.59
56400;BME280;42298;53.638;9.876;2023-04-26T07:27:17;101287.28;;;16.44;44.68
56400;BME280;42298;53.638;9.876;2023-04-26T07:29:53;101300.38;;;16.93;45.09
56400;BME280;42298;53.638;9.876;2023-04-26T07:32:21;101291.81;;;16.98;44.12
56400;BME280;42298;53.638;9.876;2023-04-26T07:34:47;101302.94;;;16.77;43.10
56400;BME280;42298;53.638;9.876;2023-04-26T07:37:12;101322.94;;;16.42;44.57
56400;BME280;42298;53.638;9.876;2023-04-26T07:39:37;101330.72;;;16.19;44.78
56400;BME280;42298;53.638;9.876;2023-04-26T07:42:03;101297.22;;;15.36;44.94
56400;BME280;42298;53.638;9.876;2023-04-26T07:44:28;101330.69;;;15.22;46.40
56400;BME280;42298;53.638;9.876;2023-04-26T07:46:53;101372.50;;;14.61;48.47
56400;BME280;42298;53.638;9.876;2023-04-26T07:49:19;101348.59;;;13.29;50.44
56400;BME280;42298;53.638;9.876;2023-04-26T07:51:44;101343.22;;;12.34;53.07
56400;BME280;42298;53.638;9.876;2023-04-26T07:54:11;101344.78;;;11.95;55.45
56400;BME280;42298;53.638;9.876;2023-04-26T07:56:36;101349.94;;;11.69;56.18
56400;BME280;42298;53.638;9.876;2023-04-26T07:59:02;101362.06;;;11.87;57.18
56400;BME280;42298;53.638;9.876;2023-04-26T08:01:29;101330.63;;;11.69;57.79
56400;BME280;42298;53.638;9.876;2023-04-26T08:03:54;101328.13;;;11.86;58.32
56400;BME280;42298;53.638;9.876;2023-04-26T08:06:19;101365.59;;;12.19;57.68
56400;BME280;42298;53.638;9.876;2023-04-26T08:08:46;101362.75;;;12.24;57.40
56400;BME280;42298;53.638;9.876;2023-04-26T08:11:14;101374.41;;;12.48;57.60
56400;BME280;42298;53.638;9.876;2023-04-26T08:13:40;101360.28;;;12.63;57.63
56400;BME280;42298;53.638;9.876;2023-04-26T08:16:08;101346.81;;;12.97;56.62
56400;BME280;42298;53.638;9.876;2023-04-26T08:18:34;101379.22;;;13.32;56.22
56400;BME280;42298;53.638;9.876;2023-04-26T08:21:00;101366.69;;;13.35;55.60
56400;BME280;42298;53.638;9.876;2023-04-26T08:23:25;101340.22;;;13.20;55.59
56400;BME280;42298;53.638;9.876;2023-04-26T08:25:50;101343.13;;;13.60;56.61
56400;BME280;42298;53.638;9.876;2023-04-26T08:28:16;101354.53;;;14.19;56.38
56400;BME280;42298;53.638;9.876;2023-04-26T08:30:43;101370.81;;;14.90;54.21
56400;BME280;42298;53.638;9.876;2023-04-26T08:33:08;101360.91;;;15.23;53.54
56400;BME280;42298;53.638;9.876;2023-04-26T08:35:34;101369.72;;;15.68;53.96
56400;BME280;42298;53.638;9.876;2023-04-26T08:37:59;101335.44;;;15.56;50.86
56400;BME280;42298;53.638;9.876;2023-04-26T08:40:25;101370.28;;;16.16;49.76
56400;BME280;42298;53.638;9.876;2023-04-26T08:42:50;101329.66;;;16.32;49.72
56400;BME280;42298;53.638;9.876;2023-04-26T08:45:17;101367.47;;;16.91;49.25
56400;BME280;42298;53.638;9.876;2023-04-26T08:47:49;101348.56;;;17.26;46.15
56400;BME280;42298;53.638;9.876;2023-04-26T08:50:20;101367.88;;;17.52;44.92
56400;BME280;42298;53.638;9.876;2023-04-26T08:52:50;101359.91;;;17.95;45.12
56400;BME280;42298;53.638;9.876;2023-04-26T08:55:17;101328.94;;;17.64;44.05
56400;BME280;42298;53.638;9.876;2023-04-26T08:57:47;101328.88;;;17.31;43.10
56400;BME280;42298;53.638;9.876;2023-04-26T09:00:15;101353.44;;;16.88;43.45
56400;BME280;42298;53.638;9.876;2023-04-26T09:02:45;101333.50;;;16.19;44.14
56400;BME280;42298;53.638;9.876;2023-04-26T09:05:10;101325.78;;;15.62;43.84
56400;BME280;42298;53.638;9.876;2023-04-26T09:07:46;101335.75;;;15.63;43.87
56400;BME280;42298;53.638;9.876;2023-04-26T09:10:13;101321.13;;;15.91;42.83
56400;BME280;42298;53.638;9.876;2023-04-26T09:12:42;101370.19;;;16.42;43.24
56400;BME280;42298;53.638;9.876;2023-04-26T09:15:07;101327.44;;;16.17;41.01
56400;BME280;42298;53.638;9.876;2023-04-26T09:17:37;101333.50;;;16.19;39.73
56400;BME280;42298;53.638;9.876;2023-04-26T09:20:24;101361.03;;;16.79;39.63
56400;BME280;42298;53.638;9.876;2023-04-26T09:23:02;101333.06;;;16.75;40.03
56400;BME280;42298;53.638;9.876;2023-04-26T09:25:29;101358.28;;;17.20;42.13
56400;BME280;42298;53.638;9.876;2023-04-26T09:27:55;101332.75;;;16.97;41.43
56400;BME280;42298;53.638;9.876;2023-04-26T09:30:21;101335.22;;;17.20;41.42
56400;BME280;42298;53.638;9.876;2023-04-26T09:33:00;101332.44;;;17.20;39.69
56400;BME280;42298;53.638;9.876;2023-04-26T09:38:16;101322.63;;;17.34;40.55
56400;BME280;42298;53.638;9.876;2023-04-26T09:40:52;101327.81;;;17.44;40.09
56400;BME280;42298;53.638;9.876;2023-04-26T09:43:20;101344.97;;;17.67;40.93
56400;BME280;42298;53.638;9.876;2023-04-26T09:48:27;101327.81;;;18.33;40.92
56400;BME280;42298;53.638;9.876;2023-04-26T09:50:57;101353.53;;;18.87;39.49
56400;BME280;42298;53.638;9.876;2023-04-26T09:53:34;101328.22;;;18.44;38.10
56400;BME280;42298;53.638;9.876;2023-04-26T09:56:12;101329.81;;;17.76;37.93
56400;BME280;42298;53.638;9.876;2023-04-26T09:58:57;101343.56;;;17.20;39.52
56400;BME280;42298;53.638;9.876;2023-04-26T10:01:24;101334.59;;;17.14;39.43
56400;BME280;42298;53.638;9.876;2023-04-26T10:03:49;101338.00;;;17.20;39.46
56400;BME280;42298;53.638;9.876;2023-04-26T10:06:16;101362.81;;;17.25;37.69
56400;BME280;42298;53.638;9.876;2023-04-26T10:08:42;101361.31;;;17.06;37.55
56400;BME280;42298;53.638;9.876;2023-04-26T10:11:08;101372.53;;;16.98;37.84
56400;BME280;42298;53.638;9.876;2023-04-26T10:13:38;101383.47;;;17.24;40.38
56400;BME280;42298;53.638;9.876;2023-04-26T10:16:05;101369.72;;;17.27;39.20
56400;BME280;42298;53.638;9.876;2023-04-26T10:18:31;101360.28;;;17.20;38.02
56400;BME280;42298;53.638;9.876;2023-04-26T10:21:15;101394.56;;;17.53;38.91
56400;BME280;42298;53.638;9.876;2023-04-26T10:23:42;101352.78;;;17.53;38.92
56400;BME280;42298;53.638;9.876;2023-04-26T10:29:20;101390.72;;;18.43;38.38
56400;BME280;42298;53.638;9.876;2023-04-26T10:34:28;101351.56;;;17.95;38.27
56400;BME280;42298;53.638;9.876;2023-04-26T10:37:11;101365.78;;;17.49;39.31
56400;BME280;42298;53.638;9.876;2023-04-26T10:39:45;101391.00;;;17.23;39.32
56400;BME280;42298;53.638;9.876;2023-04-26T10:42:27;101382.63;;;16.73;40.53
56400;BME280;42298;53.638;9.876;2023-04-26T10:44:57;101404.00;;;16.61;41.76
56400;BME280;42298;53.638;9.876;2023-04-26T10:47:32;101392.50;;;16.16;43.44
56400;BME280;42298;53.638;9.876;2023-04-26T10:50:10;101401.16;;;16.23;44.63
56400;BME280;42298;53.638;9.876;2023-04-26T10:52:37;101380.03;;;16.31;44.16
56400;BME280;42298;53.638;9.876;2023-04-26T10:55:04;101374.41;;;16.56;41.60
56400;BME280;42298;53.638;9.876;2023-04-26T10:57:49;101414.88;;;17.03;40.64
56400;BME280;42298;53.638;9.876;2023-04-26T11:00:18;101370.16;;;16.79;41.54
56400;BME280;42298;53.638;9.876;2023-04-26T11:05:53;101381.75;;;16.61;41.49
56400;BME280;42298;53.638;9.876;2023-04-26T11:08:24;101379.72;;;16.70;42.38
56400;BME280;42298;53.638;9.876;2023-04-26T11:10:56;101385.13;;;16.66;41.73
56400;BME280;42298;53.638;9.876;2023-04-26T11:13:22;101369.19;;;16.46;41.19
56400;BME280;42298;53.638;9.876;2023-04-26T11:15:51;101363.91;;;16.62;41.62
56400;BME280;42298;53.638;9.876;2023-04-26T11:18:20;101380.41;;;16.67;38.54
56400;BME280;42298;53.638;9.876;2023-04-26T11:20:46;101373.97;;;16.75;39.13
56400;BME280;42298;53.638;9.876;2023-04-26T11:23:12;101387.75;;;16.71;37.67
56400;BME280;42298;53.638;9.876;2023-04-26T11:25:38;101369.97;;;16.55;39.16
56400;BME280;42298;53.638;9.876;2023-04-26T11:28:04;101363.44;;;16.51;38.30
56400;BME280;42298;53.638;9.876;2023-04-26T11:30:31;101376.19;;;16.61;38.88
56400;BME280;42298;53.638;9.876;2023-04-26T11:33:00;101378.13;;;16.60;37.90
56400;BME280;42298;53.638;9.876;2023-04-26T11:35:26;101363.97;;;16.36;35.77
56400;BME280;42298;53.638;9.876;2023-04-26T11:37:56;101389.16;;;16.48;36.26
56400;BME280;42298;53.638;9.876;2023-04-26T11:40:22;101406.78;;;16.52;36.72
56400;BME280;42298;53.638;9.876;2023-04-26T11:42:48;101362.81;;;16.00;38.14
56400;BME280;42298;53.638;9.876;2023-04-26T11:45:15;101369.22;;;15.75;40.14
56400;BME280;42298;53.638;9.876;2023-04-26T11:47:43;101373.97;;;15.74;40.51
56400;BME280;42298;53.638;9.876;2023-04-26T11:50:09;101390.78;;;15.86;40.68
56400;BME280;42298;53.638;9.876;2023-04-26T11:52:35;101391.84;;;16.19;41.11
56400;BME280;42298;53.638;9.876;2023-04-26T11:55:05;101363.97;;;16.36;42.29
56400;BME280;42298;53.638;9.876;2023-04-26T11:57:31;101368.59;;;16.70;40.95
56400;BME280;42298;53.638;9.876;2023-04-26T12:00:12;101361.94;;;16.62;39.13
56400;BME280;42298;53.638;9.876;2023-04-26T12:02:47;101357.03;;;16.59;39.66
56400;BME280;42298;53.638;9.876;2023-04-26T12:05:28;101375.91;;;16.37;40.09
56400;BME280;42298;53.638;9.876;2023-04-26T12:07:59;101375.19;;;16.11;39.66
56400;BME280;42298;53.638;9.876;2023-04-26T12:10:26;101376.69;;;15.91;39.04
56400;BME280;42298;53.638;9.876;2023-04-26T12:12:53;101355.47;;;15.95;40.31
56400;BME280;42298;53.638;9.876;2023-04-26T12:15:28;101379.91;;;16.19;38.26
56400;BME280;42298;53.638;9.876;2023-04-26T12:18:14;101388.09;;;16.24;38.51
56400;BME280;42298;53.638;9.876;2023-04-26T12:20:41;101387.25;;;16.23;39.35
56400;BME280;42298;53.638;9.876;2023-04-26T12:23:08;101395.41;;;16.28;38.64
56400;BME280;42298;53.638;9.876;2023-04-26T12:25:36;101400.72;;;16.04;38.34
56400;BME280;42298;53.638;9.876;2023-04-26T12:28:04;101392.59;;;15.65;39.04
56400;BME280;42298;53.638;9.876;2023-04-26T12:30:30;101387.03;;;15.31;39.52
56400;BME280;42298;53.638;9.876;2023-04-26T12:32:56;101386.47;;;14.95;40.62
56400;BME280;42298;53.638;9.876;2023-04-26T12:35:22;101409.97;;;14.97;40.88
56400;BME280;42298;53.638;9.876;2023-04-26T12:37:49;101417.78;;;14.87;40.37
56400;BME280;42298;53.638;9.876;2023-04-26T12:40:18;101391.91;;;14.61;40.18
56400;BME280;42298;53.638;9.876;2023-04-26T12:42:47;101389.78;;;14.58;41.40
56400;BME280;42298;53.638;9.876;2023-04-26T12:45:13;101395.81;;;14.51;41.65
56400;BME280;42298;53.638;9.876;2023-04-26T12:47:38;101427.06;;;14.82;42.95
56400;BME280;42298;53.638;9.876;2023-04-26T12:50:04;101389.25;;;14.95;43.82
56400;BME280;42298;53.638;9.876;2023-04-26T12:52:30;101411.81;;;15.36;43.13
56400;BME280;42298;53.638;9.876;2023-04-26T12:54:56;101396.34;;;15.52;42.58
56400;BME280;42298;53.638;9.876;2023-04-26T12:57:22;101419.38;;;15.70;41.18
56400;BME280;42298;53.638;9.876;2023-04-26T12:59:47;101391.59;;;15.61;40.25
56400;BME280;42298;53.638;9.876;2023-04-26T13:02:12;101404.03;;;15.72;39.69
56400;BME280;42298;53.638;9.876;2023-04-26T13:04:38;101387.19;;;15.60;40.46
56400;BME280;42298;53.638;9.876;2023-04-26T13:07:03;101418.22;;;15.71;39.22
56400;BME280;42298;53.638;9.876;2023-04-26T13:09:29;101396.00;;;15.37;38.52
56400;BME280;42298;53.638;9.876;2023-04-26T13:11:54;101399.06;;;15.09;38.98